sensor_id;sensor_type;location;lat;lon;timestamp;temperature;humidity
50556;DHT22;36508;52.512;13.450;2022-12-18T00:01:53;-3.20;99.90
50556;DHT22;36508;52.512;13.450;2022-12-18T00:04:23;-3.20;99.90
50556;DHT22;36508;52.512;13.450;2022-12-18T00:06:50;-3.20;99.90
50556;DHT22;36508;52.512;13.450;2022-12-18T00:09:15;-3.10;99.90
50556;DHT22;36508;52.512;13.450;2022-12-18T00:11:41;-3.10;99.90
50556;DHT22;36508;52.512;13.450;2022-12-18T00:14:11;-3.20;99.90
50556;DHT22;36508;52.512;13.450;2022-12-18T00:16:36;-3.20;99.90
50556;DHT22;36508;52.512;13.450;2022-12-18T00:19:03;-3.60;99.90
50556;DHT22;36508;52.512;13.450;2022-12-18T00:21:30;-3.70;99.90
50556;DHT22;36508;52.512;13.450;2022-12-18T00:23:56;-4.00;99.90
50556;DHT22;36508;52.512;13.450;2022-12-18T00:26:30;-4.00;99.90
50556;DHT22;36508;52.512;13.450;2022-12-18T00:29:01;-3.90;99.90
50556;DHT22;36508;52.512;13.450;2022-12-18T00:31:27;-3.90;99.90
50556;DHT22;36508;52.512;13.450;2022-12-18T00:33:54;-3.80;99.90
50556;DHT22;36508;52.512;13.450;2022-12-18T00:36:24;-3.70;99.90
50556;DHT22;36508;52.512;13.450;2022-12-18T00:38:50;-3.70;99.90
50556;DHT22;36508;52.512;13.450;2022-12-18T00:41:17;-3.80;99.90
50556;DHT22;36508;52.512;13.450;2022-12-18T00:44:04;-3.60;99.90
50556;DHT22;36508;52.512;13.450;2022-12-18T00:46:30;-3.60;99.90
50556;DHT22;36508;52.512;13.450;2022-12-18T00:49:03;-3.40;99.90
50556;DHT22;36508;52.512;13.450;2022-12-18T00:51:28;-3.40;99.90
50556;DHT22;36508;52.512;13.450;2022-12-18T00:53:54;-3.30;99.90
50556;DHT22;36508;52.512;13.450;2022-12-18T00:56:20;-3.40;99.90
50556;DHT22;36508;52.512;13.450;2022-12-18T00:58:48;-3.40;99.90
50556;DHT22;36508;52.512;13.450;2022-12-18T01:01:14;-3.50;99.90
50556;DHT22;36508;52.512;13.450;2022-12-18T01:03:40;-3.70;99.90
50556;DHT22;36508;52.512;13.450;2022-12-18T01:06:07;-3.80;99.90
50556;DHT22;36508;52.512;13.450;2022-12-18T01:08:33;-4.00;99.90
50556;DHT22;36508;52.512;13.450;2022-12-18T01:10:59;-4.10;99.90
50556;DHT22;36508;52.512;13.450;2022-12-18T01:13:24;-3.90;99.90
50556;DHT22;36508;52.512;13.450;2022-12-18T01:15:50;-3.80;99.90
50556;DHT22;36508;52.512;13.450;2022-12-18T01:18:16;-3.70;99.90
50556;DHT22;36508;52.512;13.450;2022-12-18T01:20:41;-3.90;99.90
50556;DHT22;36508;52.512;13.450;2022-12-18T01:23:07;-3.90;99.90
50556;DHT22;36508;52.512;13.450;2022-12-18T01:25:33;-4.40;99.90
50556;DHT22;36508;52.512;13.450;2022-12-18T01:30:28;-4.40;99.90
50556;DHT22;36508;52.512;13.450;2022-12-18T01:32:54;-4.30;99.90
50556;DHT22;36508;52.512;13.450;2022-12-18T01:35:20;-4.20;99.90
50556;DHT22;36508;52.512;13.450;2022-12-18T01:37:45;-4.20;99.90
50556;DHT22;36508;52.512;13.450;2022-12-18T01:40:11;-4.20;99.90
50556;DHT22;36508;52.512;13.450;2022-12-18T01:42:37;-4.20;99.90
50556;DHT22;36508;52.512;13.450;2022-12-18T01:52:47;-4.20;99.90
50556;DHT22;36508;52.512;13.450;2022-12-18T01:55:16;-4.30;99.90
50556;DHT22;36508;52.512;13.450;2022-12-18T01:57:43;-4.30;99.90
50556;DHT22;36508;52.512;13.450;2022-12-18T02:00:18;-4.20;99.90
50556;DHT22;36508;52.512;13.450;2022-12-18T02:02:45;-4.10;99.90
50556;DHT22;36508;52.512;13.450;2022-12-18T02:05:13;-4.10;99.90
50556;DHT22;36508;52.512;13.450;2022-12-18T02:13:00;-4.00;99.90
50556;DHT22;36508;52.512;13.450;2022-12-18T02:15:38;-3.90;99.90
50556;DHT22;36508;52.512;13.450;2022-12-18T02:18:13;-4.10;99.90
50556;DHT22;36508;52.512;13.450;2022-12-18T02:20:49;-4.30;99.90
50556;DHT22;36508;52.512;13.450;2022-12-18T02:23:36;-4.20;99.90
50556;DHT22;36508;52.512;13.450;2022-12-18T02:26:21;-4.10;99.90
50556;DHT22;36508;52.512;13.450;2022-12-18T02:31:32;-4.10;99.90
50556;DHT22;36508;52.512;13.450;2022-12-18T02:34:03;-4.10;99.90
50556;DHT22;36508;52.512;13.450;2022-12-18T02:36:32;-4.00;99.90
50556;DHT22;36508;52.512;13.450;2022-12-18T02:39:00;-3.90;99.90
50556;DHT22;36508;52.512;13.450;2022-12-18T02:41:26;-3.80;99.90
50556;DHT22;36508;52.512;13.450;2022-12-18T02:43:58;-3.90;99.90
50556;DHT22;36508;52.512;13.450;2022-12-18T02:46:33;-3.90;99.90
50556;DHT22;36508;52.512;13.450;2022-12-18T02:52:06;-3.90;99.90
50556;DHT22;36508;52.512;13.450;2022-12-18T02:54:37;-3.80;99.90
50556;DHT22;36508;52.512;13.450;2022-12-18T02:59:56;-3.90;99.90
50556;DHT22;36508;52.512;13.450;2022-12-18T03:02:29;-3.80;99.90
50556;DHT22;36508;52.512;13.450;2022-12-18T03:05:21;-3.80;99.90
50556;DHT22;36508;52.512;13.450;2022-12-18T03:10:16;-3.80;99.90
50556;DHT22;36508;52.512;13.450;2022-12-18T03:12:54;-3.70;99.90
50556;DHT22;36508;52.512;13.450;2022-12-18T03:15:31;-3.70;99.90
50556;DHT22;36508;52.512;13.450;2022-12-18T03:18:04;-3.70;99.90
50556;DHT22;36508;52.512;13.450;2022-12-18T03:20:32;-3.80;99.90
50556;DHT22;36508;52.512;13.450;2022-12-18T03:23:15;-4.20;99.90
50556;DHT22;36508;52.512;13.450;2022-12-18T03:25:43;-4.60;99.90
50556;DHT22;36508;52.512;13.450;2022-12-18T03:28:15;-4.70;99.90
50556;DHT22;36508;52.512;13.450;2022-12-18T03:33:16;-4.50;99.90
50556;DHT22;36508;52.512;13.450;2022-12-18T03:35:45;-4.40;99.90
50556;DHT22;36508;52.512;13.450;2022-12-18T03:38:11;-4.40;99.90
50556;DHT22;36508;52.512;13.450;2022-12-18T03:46:37;-4.70;99.90
50556;DHT22;36508;52.512;13.450;2022-12-18T03:49:23;-4.70;99.90
50556;DHT22;36508;52.512;13.450;2022-12-18T03:51:58;-4.80;99.90
50556;DHT22;36508;52.512;13.450;2022-12-18T03:54:27;-4.70;99.90
50556;DHT22;36508;52.512;13.450;2022-12-18T03:57:06;-4.60;99.90
50556;DHT22;36508;52.512;13.450;2022-12-18T03:59:33;-4.50;99.90
50556;DHT22;36508;52.512;13.450;2022-12-18T04:02:01;-4.40;99.90
50556;DHT22;36508;52.512;13.450;2022-12-18T04:04:29;-4.30;99.90
50556;DHT22;36508;52.512;13.450;2022-12-18T04:06:58;-4.20;99.90
50556;DHT22;36508;52.512;13.450;2022-12-18T04:09:24;-4.30;99.90
50556;DHT22;36508;52.512;13.450;2022-12-18T04:11:51;-4.30;99.90
50556;DHT22;36508;52.512;13.450;2022-12-18T04:14:17;-4.20;99.90
50556;DHT22;36508;52.512;13.450;2022-12-18T04:16:42;-4.20;99.90
50556;DHT22;36508;52.512;13.450;2022-12-18T04:19:08;-4.30;99.90
50556;DHT22;36508;52.512;13.450;2022-12-18T04:21:33;-4.30;99.90
50556;DHT22;36508;52.512;13.450;2022-12-18T04:23:59;-4.20;99.90
50556;DHT22;36508;52.512;13.450;2022-12-18T04:26:24;-4.30;99.90
50556;DHT22;36508;52.512;13.450;2022-12-18T04:28:50;-4.30;99.90
50556;DHT22;36508;52.512;13.450;2022-12-18T04:31:16;-4.30;99.90
50556;DHT22;36508;52.512;13.450;2022-12-18T04:33:41;-4.40;99.90
50556;DHT22;36508;52.512;13.450;2022-12-18T04:36:07;-4.50;99.90
50556;DHT22;36508;52.512;13.450;2022-12-18T04:38:32;-4.50;99.90
50556;DHT22;36508;52.512;13.450;2022-12-18T04:40:58;-4.50;99.90
50556;DHT22;36508;52.512;13.450;2022-12-18T04:43:24;-4.50;99.90
50556;DHT22;36508;52.512;13.450;2022-12-18T04:45:49;-4.60;99.90
50556;DHT22;36508;52.512;13.450;2022-12-18T04:48:15;-4.50;99.90
50556;DHT22;36508;52.512;13.450;2022-12-18T04:50:40;-4.50;99.90
50556;DHT22;36508;52.512;13.450;2022-12-18T04:53:06;-4.50;99.90
50556;DHT22;36508;52.512;13.450;2022-12-18T04:55:32;-4.40;99.90
50556;DHT22;36508;52.512;13.450;2022-12-18T04:57:57;-4.40;99.90
50556;DHT22;36508;52.512;13.450;2022-12-18T05:00:23;-4.40;99.90
50556;DHT22;36508;52.512;13.450;2022-12-18T05:02:48;-4.30;99.90
50556;DHT22;36508;52.512;13.450;2022-12-18T05:05:14;-4.30;99.90
50556;DHT22;36508;52.512;13.450;2022-12-18T05:07:40;-4.30;99.90
50556;DHT22;36508;52.512;13.450;2022-12-18T05:10:05;-4.30;99.90
50556;DHT22;36508;52.512;13.450;2022-12-18T05:12:32;-4.30;99.90
50556;DHT22;36508;52.512;13.450;2022-12-18T05:14:57;-4.20;99.90
50556;DHT22;36508;52.512;13.450;2022-12-18T05:17:23;-4.50;99.90
50556;DHT22;36508;52.512;13.450;2022-12-18T05:19:49;-4.40;99.90
50556;DHT22;36508;52.512;13.450;2022-12-18T05:22:14;-4.40;99.90
50556;DHT22;36508;52.512;13.450;2022-12-18T05:24:40;-4.30;99.90
50556;DHT22;36508;52.512;13.450;2022-12-18T05:27:06;-4.30;99.90
50556;DHT22;36508;52.512;13.450;2022-12-18T05:29:31;-4.40;99.90
50556;DHT22;36508;52.512;13.450;2022-12-18T05:31:57;-4.50;99.90
50556;DHT22;36508;52.512;13.450;2022-12-18T05:34:22;-4.40;99.90
50556;DHT22;36508;52.512;13.450;2022-12-18T05:36:48;-4.30;99.90
50556;DHT22;36508;52.512;13.450;2022-12-18T05:39:14;-4.20;99.90
50556;DHT22;36508;52.512;13.450;2022-12-18T05:41:39;-4.20;99.90
50556;DHT22;36508;52.512;13.450;2022-12-18T05:44:05;-4.20;99.90
50556;DHT22;36508;52.512;13.450;2022-12-18T05:46:30;-4.20;99.90
50556;DHT22;36508;52.512;13.450;2022-12-18T05:48:59;-4.20;99.90
50556;DHT22;36508;52.512;13.450;2022-12-18T05:51:25;-4.20;99.90
50556;DHT22;36508;52.512;13.450;2022-12-18T05:53:50;-4.30;99.90
50556;DHT22;36508;52.512;13.450;2022-12-18T05:56:19;-4.40;99.90
50556;DHT22;36508;52.512;13.450;2022-12-18T05:58:45;-4.40;99.90
50556;DHT22;36508;52.512;13.450;2022-12-18T06:01:21;-4.60;99.90
50556;DHT22;36508;52.512;13.450;2022-12-18T06:03:46;-4.50;99.90
50556;DHT22;36508;52.512;13.450;2022-12-18T06:06:21;-4.40;99.90
50556;DHT22;36508;52.512;13.450;2022-12-18T06:08:48;-4.30;99.90
50556;DHT22;36508;52.512;13.450;2022-12-18T06:11:17;-4.20;99.90
50556;DHT22;36508;52.512;13.450;2022-12-18T06:13:43;-4.30;99.90
50556;DHT22;36508;52.512;13.450;2022-12-18T06:16:09;-4.30;99.90
50556;DHT22;36508;52.512;13.450;2022-12-18T06:18:35;-4.50;99.90
50556;DHT22;36508;52.512;13.450;2022-12-18T06:21:01;-4.60;99.90
50556;DHT22;36508;52.512;13.450;2022-12-18T06:23:27;-4.60;99.90
50556;DHT22;36508;52.512;13.450;2022-12-18T06:25:52;-4.50;99.90
50556;DHT22;36508;52.512;13.450;2022-12-18T06:28:18;-4.40;99.90
50556;DHT22;36508;52.512;13.450;2022-12-18T06:30:45;-4.30;99.90
50556;DHT22;36508;52.512;13.450;2022-12-18T06:33:11;-4.30;99.90
50556;DHT22;36508;52.512;13.450;2022-12-18T06:35:37;-4.20;99.90
50556;DHT22;36508;52.512;13.450;2022-12-18T06:38:03;-4.20;99.90
50556;DHT22;36508;52.512;13.450;2022-12-18T06:40:29;-4.10;99.90
50556;DHT22;36508;52.512;13.450;2022-12-18T06:42:54;-4.20;99.90
50556;DHT22;36508;52.512;13.450;2022-12-18T06:45:20;-4.10;99.90
50556;DHT22;36508;52.512;13.450;2022-12-18T06:47:45;-4.10;99.90
50556;DHT22;36508;52.512;13.450;2022-12-18T06:50:11;-4.20;99.90
50556;DHT22;36508;52.512;13.450;2022-12-18T06:52:37;-4.20;99.90
50556;DHT22;36508;52.512;13.450;2022-12-18T06:55:05;-4.20;99.90
50556;DHT22;36508;52.512;13.450;2022-12-18T06:57:30;-4.20;99.90
50556;DHT22;36508;52.512;13.450;2022-12-18T06:59:56;-4.20;99.90
50556;DHT22;36508;52.512;13.450;2022-12-18T07:02:22;-4.20;99.90
50556;DHT22;36508;52.512;13.450;2022-12-18T07:04:47;-4.30;99.90
50556;DHT22;36508;52.512;13.450;2022-12-18T07:07:13;-4.40;99.90
50556;DHT22;36508;52.512;13.450;2022-12-18T07:09:38;-4.40;99.90
50556;DHT22;36508;52.512;13.450;2022-12-18T07:12:04;-4.30;99.90
50556;DHT22;36508;52.512;13.450;2022-12-18T07:14:30;-4.20;99.90
50556;DHT22;36508;52.512;13.450;2022-12-18T07:16:55;-4.20;99.90
50556;DHT22;36508;52.512;13.450;2022-12-18T07:19:21;-4.20;99.90
50556;DHT22;36508;52.512;13.450;2022-12-18T07:21:46;-4.30;99.90
50556;DHT22;36508;52.512;13.450;2022-12-18T07:24:12;-4.30;99.90
50556;DHT22;36508;52.512;13.450;2022-12-18T07:26:38;-4.40;99.90
50556;DHT22;36508;52.512;13.450;2022-12-18T07:29:03;-4.40;99.90
50556;DHT22;36508;52.512;13.450;2022-12-18T07:31:29;-4.60;99.90
50556;DHT22;36508;52.512;13.450;2022-12-18T07:33:55;-4.50;99.90
50556;DHT22;36508;52.512;13.450;2022-12-18T07:36:20;-4.60;99.90
50556;DHT22;36508;52.512;13.450;2022-12-18T07:38:49;-4.50;99.90
50556;DHT22;36508;52.512;13.450;2022-12-18T07:41:16;-4.30;99.90
50556;DHT22;36508;52.512;13.450;2022-12-18T07:43:42;-4.40;99.90
50556;DHT22;36508;52.512;13.450;2022-12-18T07:46:08;-4.30;99.90
50556;DHT22;36508;52.512;13.450;2022-12-18T07:48:34;-4.20;99.90
50556;DHT22;36508;52.512;13.450;2022-12-18T07:51:05;-4.10;99.90
50556;DHT22;36508;52.512;13.450;2022-12-18T07:53:32;-4.10;99.90
50556;DHT22;36508;52.512;13.450;2022-12-18T07:55:59;-4.00;99.90
50556;DHT22;36508;52.512;13.450;2022-12-18T07:58:26;-4.00;99.90
50556;DHT22;36508;52.512;13.450;2022-12-18T08:00:52;-4.10;99.90
50556;DHT22;36508;52.512;13.450;2022-12-18T08:03:18;-4.10;99.90
50556;DHT22;36508;52.512;13.450;2022-12-18T08:05:43;-4.00;99.90
50556;DHT22;36508;52.512;13.450;2022-12-18T08:08:09;-4.00;99.90
50556;DHT22;36508;52.512;13.450;2022-12-18T08:10:35;-4.00;99.90
50556;DHT22;36508;52.512;13.450;2022-12-18T08:13:00;-4.00;99.90
50556;DHT22;36508;52.512;13.450;2022-12-18T08:15:26;-4.00;99.90
50556;DHT22;36508;52.512;13.450;2022-12-18T08:17:51;-3.90;99.90
50556;DHT22;36508;52.512;13.450;2022-12-18T08:20:17;-3.90;99.90
50556;DHT22;36508;52.512;13.450;2022-12-18T08:22:44;-3.90;99.90
50556;DHT22;36508;52.512;13.450;2022-12-18T08:25:10;-3.90;99.90
50556;DHT22;36508;52.512;13.450;2022-12-18T08:27:36;-3.90;99.90
50556;DHT22;36508;52.512;13.450;2022-12-18T08:30:02;-3.90;99.90
50556;DHT22;36508;52.512;13.450;2022-12-18T08:32:28;-3.90;99.90
50556;DHT22;36508;52.512;13.450;2022-12-18T08:34:54;-3.90;99.90
50556;DHT22;36508;52.512;13.450;2022-12-18T08:37:19;-3.90;99.90
50556;DHT22;36508;52.512;13.450;2022-12-18T08:39:45;-4.00;99.90
50556;DHT22;36508;52.512;13.450;2022-12-18T08:44:40;-3.70;99.90
50556;DHT22;36508;52.512;13.450;2022-12-18T08:47:07;-3.70;99.90
50556;DHT22;36508;52.512;13.450;2022-12-18T08:49:33;-3.70;99.90
50556;DHT22;36508;52.512;13.450;2022-12-18T08:51:59;-3.80;99.90
50556;DHT22;36508;52.512;13.450;2022-12-18T08:54:25;-3.80;99.90
50556;DHT22;36508;52.512;13.450;2022-12-18T08:56:51;-3.90;99.90
50556;DHT22;36508;52.512;13.450;2022-12-18T08:59:18;-3.80;99.90
50556;DHT22;36508;52.512;13.450;2022-12-18T09:01:43;-3.70;99.90
50556;DHT22;36508;52.512;13.450;2022-12-18T09:04:09;-3.70;99.90
50556;DHT22;36508;52.512;13.450;2022-12-18T09:06:35;-3.80;99.90
50556;DHT22;36508;52.512;13.450;2022-12-18T09:09:01;-3.70;99.90
50556;DHT22;36508;52.512;13.450;2022-12-18T09:11:28;-3.60;99.90
50556;DHT22;36508;52.512;13.450;2022-12-18T09:13:54;-3.60;99.90
50556;DHT22;36508;52.512;13.450;2022-12-18T09:16:21;-3.50;99.90
50556;DHT22;36508;52.512;13.450;2022-12-18T09:18:47;-3.50;99.90
50556;DHT22;36508;52.512;13.450;2022-12-18T09:21:18;-3.70;99.90
50556;DHT22;36508;52.512;13.450;2022-12-18T09:23:48;-4.00;99.90
50556;DHT22;36508;52.512;13.450;2022-12-18T09:26:14;-4.00;99.90
50556;DHT22;36508;52.512;13.450;2022-12-18T09:28:40;-3.90;99.90
50556;DHT22;36508;52.512;13.450;2022-12-18T09:31:07;-3.90;99.90
50556;DHT22;36508;52.512;13.450;2022-12-18T09:33:34;-3.80;99.90
50556;DHT22;36508;52.512;13.450;2022-12-18T09:36:06;-3.60;99.90
50556;DHT22;36508;52.512;13.450;2022-12-18T09:38:32;-3.40;99.90
50556;DHT22;36508;52.512;13.450;2022-12-18T09:41:14;-3.20;99.90
50556;DHT22;36508;52.512;13.450;2022-12-18T09:44:52;-3.20;99.90
50556;DHT22;36508;52.512;13.450;2022-12-18T09:49:29;-3.10;99.90
50556;DHT22;36508;52.512;13.450;2022-12-18T09:52:16;-3.00;99.90
50556;DHT22;36508;52.512;13.450;2022-12-18T09:54:47;-3.00;99.90
50556;DHT22;36508;52.512;13.450;2022-12-18T09:57:23;-3.30;99.90
50556;DHT22;36508;52.512;13.450;2022-12-18T10:00:19;-3.20;99.90
50556;DHT22;36508;52.512;13.450;2022-12-18T10:02:46;-3.10;99.90
50556;DHT22;36508;52.512;13.450;2022-12-18T10:05:35;-2.90;99.90
50556;DHT22;36508;52.512;13.450;2022-12-18T10:08:07;-2.90;99.90
50556;DHT22;36508;52.512;13.450;2022-12-18T10:10:47;-2.80;99.90
50556;DHT22;36508;52.512;13.450;2022-12-18T10:13:36;-2.70;99.90
50556;DHT22;36508;52.512;13.450;2022-12-18T10:21:49;-2.70;99.90
50556;DHT22;36508;52.512;13.450;2022-12-18T10:27:30;-2.60;99.90
50556;DHT22;36508;52.512;13.450;2022-12-18T10:29:57;-2.50;99.90
50556;DHT22;36508;52.512;13.450;2022-12-18T10:32:25;-2.40;99.90
50556;DHT22;36508;52.512;13.450;2022-12-18T10:34:52;-2.30;99.90
50556;DHT22;36508;52.512;13.450;2022-12-18T10:37:24;-2.20;99.90
50556;DHT22;36508;52.512;13.450;2022-12-18T10:40:12;-2.10;99.90
50556;DHT22;36508;52.512;13.450;2022-12-18T10:42:38;-2.00;99.90
50556;DHT22;36508;52.512;13.450;2022-12-18T10:47:34;-2.10;99.90
50556;DHT22;36508;52.512;13.450;2022-12-18T10:49:59;-2.00;99.90
50556;DHT22;36508;52.512;13.450;2022-12-18T10:52:26;-2.00;99.90
50556;DHT22;36508;52.512;13.450;2022-12-18T10:54:59;-2.10;99.90
50556;DHT22;36508;52.512;13.450;2022-12-18T10:57:35;-2.30;99.90
50556;DHT22;36508;52.512;13.450;2022-12-18T11:03:00;-2.20;99.90
50556;DHT22;36508;52.512;13.450;2022-12-18T11:05:32;-2.20;99.90
50556;DHT22;36508;52.512;13.450;2022-12-18T11:07:59;-2.20;99.90
50556;DHT22;36508;52.512;13.450;2022-12-18T11:10:30;-2.20;99.90
50556;DHT22;36508;52.512;13.450;2022-12-18T11:13:21;-2.10;99.90
50556;DHT22;36508;52.512;13.450;2022-12-18T11:15:48;-2.10;99.90
50556;DHT22;36508;52.512;13.450;2022-12-18T11:18:28;-2.20;99.90
50556;DHT22;36508;52.512;13.450;2022-12-18T11:23:23;-2.40;99.90
50556;DHT22;36508;52.512;13.450;2022-12-18T11:26:01;-2.30;99.90
50556;DHT22;36508;52.512;13.450;2022-12-18T11:28:47;-2.30;99.90
50556;DHT22;36508;52.512;13.450;2022-12-18T11:31:28;-2.20;99.90
50556;DHT22;36508;52.512;13.450;2022-12-18T11:34:01;-2.10;99.90
50556;DHT22;36508;52.512;13.450;2022-12-18T11:36:32;-2.10;99.90
50556;DHT22;36508;52.512;13.450;2022-12-18T11:39:04;-2.10;99.90
50556;DHT22;36508;52.512;13.450;2022-12-18T11:41:56;-2.10;99.90
50556;DHT22;36508;52.512;13.450;2022-12-18T11:44:57;-2.20;99.90
50556;DHT22;36508;52.512;13.450;2022-12-18T11:47:49;-2.20;99.90
50556;DHT22;36508;52.512;13.450;2022-12-18T11:50:20;-2.10;99.90
50556;DHT22;36508;52.512;13.450;2022-12-18T11:52:47;-2.10;99.90
50556;DHT22;36508;52.512;13.450;2022-12-18T11:55:23;-2.10;99.90
50556;DHT22;36508;52.512;13.450;2022-12-18T12:00:48;-2.10;99.90
50556;DHT22;36508;52.512;13.450;2022-12-18T12:03:27;-2.10;99.90
50556;DHT22;36508;52.512;13.450;2022-12-18T12:06:26;-2.20;99.90
50556;DHT22;36508;52.512;13.450;2022-12-18T12:12:03;-2.30;99.90
50556;DHT22;36508;52.512;13.450;2022-12-18T12:18:03;-2.20;99.90
50556;DHT22;36508;52.512;13.450;2022-12-18T12:26:10;-2.10;99.90
50556;DHT22;36508;52.512;13.450;2022-12-18T12:28:58;-2.00;99.90
50556;DHT22;36508;52.512;13.450;2022-12-18T12:38:21;-1.90;99.90
50556;DHT22;36508;52.512;13.450;2022-12-18T12:40:28;-2.00;99.90
50556;DHT22;36508;52.512;13.450;2022-12-18T12:53:39;-2.00;99.90
50556;DHT22;36508;52.512;13.450;2022-12-18T12:56:08;-2.00;99.90
50556;DHT22;36508;52.512;13.450;2022-12-18T13:04:02;-1.90;99.90
50556;DHT22;36508;52.512;13.450;2022-12-18T13:09:12;-1.90;99.90
50556;DHT22;36508;52.512;13.450;2022-12-18T13:11:43;-1.90;99.90
50556;DHT22;36508;52.512;13.450;2022-12-18T13:14:37;-1.90;99.90
50556;DHT22;36508;52.512;13.450;2022-12-18T13:19:51;-1.80;99.90
50556;DHT22;36508;52.512;13.450;2022-12-18T13:22:31;-1.90;99.90
50556;DHT22;36508;52.512;13.450;2022-12-18T13:24:58;-2.00;99.90
50556;DHT22;36508;52.512;13.450;2022-12-18T13:41:00;-1.80;99.90
50556;DHT22;36508;52.512;13.450;2022-12-18T13:46:46;-1.90;99.90
50556;DHT22;36508;52.512;13.450;2022-12-18T13:51:43;-2.00;99.90
50556;DHT22;36508;52.512;13.450;2022-12-18T13:56:46;-1.90;99.90
50556;DHT22;36508;52.512;13.450;2022-12-18T13:59:21;-2.10;99.90
50556;DHT22;36508;52.512;13.450;2022-12-18T14:01:58;-2.10;99.90
50556;DHT22;36508;52.512;13.450;2022-12-18T14:04:30;-2.00;99.90
50556;DHT22;36508;52.512;13.450;2022-12-18T14:07:07;-2.00;99.90
50556;DHT22;36508;52.512;13.450;2022-12-18T14:09:44;-2.00;99.90
50556;DHT22;36508;52.512;13.450;2022-12-18T14:14:55;-2.00;99.90
50556;DHT22;36508;52.512;13.450;2022-12-18T14:17:22;-1.90;99.90
50556;DHT22;36508;52.512;13.450;2022-12-18T14:19:50;-2.00;99.90
50556;DHT22;36508;52.512;13.450;2022-12-18T14:22:21;-1.90;99.90
50556;DHT22;36508;52.512;13.450;2022-12-18T14:24:51;-2.00;99.90
50556;DHT22;36508;52.512;13.450;2022-12-18T14:27:29;-2.00;99.90
50556;DHT22;36508;52.512;13.450;2022-12-18T14:29:55;-2.00;99.90
50556;DHT22;36508;52.512;13.450;2022-12-18T14:32:21;-2.10;99.90
50556;DHT22;36508;52.512;13.450;2022-12-18T14:34:48;-2.10;99.90
50556;DHT22;36508;52.512;13.450;2022-12-18T14:37:25;-2.00;99.90
50556;DHT22;36508;52.512;13.450;2022-12-18T14:39:54;-1.90;99.90
50556;DHT22;36508;52.512;13.450;2022-12-18T14:42:20;-1.90;99.90
50556;DHT22;36508;52.512;13.450;2022-12-18T14:44:45;-2.10;99.90
50556;DHT22;36508;52.512;13.450;2022-12-18T14:47:15;-2.10;99.90
50556;DHT22;36508;52.512;13.450;2022-12-18T14:49:42;-2.20;99.90
50556;DHT22;36508;52.512;13.450;2022-12-18T14:52:24;-2.30;99.90
50556;DHT22;36508;52.512;13.450;2022-12-18T14:54:52;-2.40;99.90
50556;DHT22;36508;52.512;13.450;2022-12-18T14:57:25;-2.50;99.90
50556;DHT22;36508;52.512;13.450;2022-12-18T15:00:04;-2.50;99.90
50556;DHT22;36508;52.512;13.450;2022-12-18T15:02:30;-2.50;99.90
50556;DHT22;36508;52.512;13.450;2022-12-18T15:05:17;-2.40;99.90
50556;DHT22;36508;52.512;13.450;2022-12-18T15:07:51;-2.40;99.90
50556;DHT22;36508;52.512;13.450;2022-12-18T15:10:23;-2.50;99.90
50556;DHT22;36508;52.512;13.450;2022-12-18T15:20:38;-2.60;99.90
50556;DHT22;36508;52.512;13.450;2022-12-18T15:23:04;-2.50;99.90
50556;DHT22;36508;52.512;13.450;2022-12-18T15:25:37;-2.40;99.90
50556;DHT22;36508;52.512;13.450;2022-12-18T15:28:04;-2.30;99.90
50556;DHT22;36508;52.512;13.450;2022-12-18T15:31:01;-2.30;99.90
50556;DHT22;36508;52.512;13.450;2022-12-18T15:33:34;-2.20;99.90
50556;DHT22;36508;52.512;13.450;2022-12-18T15:36:03;-2.20;99.90
50556;DHT22;36508;52.512;13.450;2022-12-18T15:38:29;-2.20;99.90
50556;DHT22;36508;52.512;13.450;2022-12-18T15:40:55;-2.20;99.90
50556;DHT22;36508;52.512;13.450;2022-12-18T15:43:22;-2.30;99.90
50556;DHT22;36508;52.512;13.450;2022-12-18T15:46:21;-2.30;99.90
50556;DHT22;36508;52.512;13.450;2022-12-18T15:48:49;-2.30;99.90
50556;DHT22;36508;52.512;13.450;2022-12-18T15:51:20;-2.30;99.90
50556;DHT22;36508;52.512;13.450;2022-12-18T15:53:47;-2.30;99.90
50556;DHT22;36508;52.512;13.450;2022-12-18T15:56:15;-2.30;99.90
50556;DHT22;36508;52.512;13.450;2022-12-18T15:59:00;-2.30;99.90
50556;DHT22;36508;52.512;13.450;2022-12-18T16:01:28;-2.40;99.90
50556;DHT22;36508;52.512;13.450;2022-12-18T16:03:54;-2.50;99.90
50556;DHT22;36508;52.512;13.450;2022-12-18T16:06:21;-2.40;99.90
50556;DHT22;36508;52.512;13.450;2022-12-18T16:08:47;-2.50;99.90
50556;DHT22;36508;52.512;13.450;2022-12-18T16:16:48;-2.50;99.90
50556;DHT22;36508;52.512;13.450;2022-12-18T16:19:15;-2.50;99.90
50556;DHT22;36508;52.512;13.450;2022-12-18T16:21:41;-2.40;99.90
50556;DHT22;36508;52.512;13.450;2022-12-18T16:24:16;-2.40;99.90
50556;DHT22;36508;52.512;13.450;2022-12-18T16:26:42;-2.50;99.90
50556;DHT22;36508;52.512;13.450;2022-12-18T16:29:08;-2.50;99.90
50556;DHT22;36508;52.512;13.450;2022-12-18T16:31:34;-2.40;99.90
50556;DHT22;36508;52.512;13.450;2022-12-18T16:34:28;-2.50;99.90
50556;DHT22;36508;52.512;13.450;2022-12-18T16:37:00;-2.40;99.90
50556;DHT22;36508;52.512;13.450;2022-12-18T16:39:26;-2.50;99.90
50556;DHT22;36508;52.512;13.450;2022-12-18T16:41:51;-2.50;99.90
50556;DHT22;36508;52.512;13.450;2022-12-18T16:44:18;-2.50;99.90
50556;DHT22;36508;52.512;13.450;2022-12-18T16:46:44;-2.60;99.90
50556;DHT22;36508;52.512;13.450;2022-12-18T16:49:13;-2.60;99.90
50556;DHT22;36508;52.512;13.450;2022-12-18T16:51:39;-2.60;99.90
50556;DHT22;36508;52.512;13.450;2022-12-18T16:54:05;-2.50;99.90
50556;DHT22;36508;52.512;13.450;2022-12-18T16:56:31;-2.50;99.90
50556;DHT22;36508;52.512;13.450;2022-12-18T16:58:58;-2.50;99.90
50556;DHT22;36508;52.512;13.450;2022-12-18T17:01:25;-2.50;99.90
50556;DHT22;36508;52.512;13.450;2022-12-18T17:03:58;-2.50;99.90
50556;DHT22;36508;52.512;13.450;2022-12-18T17:06:25;-2.50;99.90
50556;DHT22;36508;52.512;13.450;2022-12-18T17:08:55;-2.60;99.90
50556;DHT22;36508;52.512;13.450;2022-12-18T17:11:23;-2.70;99.90
50556;DHT22;36508;52.512;13.450;2022-12-18T17:13:49;-2.70;99.90
50556;DHT22;36508;52.512;13.450;2022-12-18T17:16:14;-2.70;99.90
50556;DHT22;36508;52.512;13.450;2022-12-18T17:18:41;-2.80;99.90
50556;DHT22;36508;52.512;13.450;2022-12-18T17:21:09;-2.80;99.90
50556;DHT22;36508;52.512;13.450;2022-12-18T17:23:35;-2.80;99.90
50556;DHT22;36508;52.512;13.450;2022-12-18T17:26:01;-2.80;99.90
50556;DHT22;36508;52.512;13.450;2022-12-18T17:28:29;-2.90;99.90
50556;DHT22;36508;52.512;13.450;2022-12-18T17:30:55;-2.90;99.90
50556;DHT22;36508;52.512;13.450;2022-12-18T17:33:21;-2.90;99.90
50556;DHT22;36508;52.512;13.450;2022-12-18T17:35:47;-2.80;99.90
50556;DHT22;36508;52.512;13.450;2022-12-18T17:38:13;-2.80;99.90
50556;DHT22;36508;52.512;13.450;2022-12-18T17:40:39;-2.80;99.90
50556;DHT22;36508;52.512;13.450;2022-12-18T17:43:06;-2.80;99.90
50556;DHT22;36508;52.512;13.450;2022-12-18T17:45:36;-2.80;99.90
50556;DHT22;36508;52.512;13.450;2022-12-18T17:48:03;-2.80;99.90